sensor_id;sensor_type;location;lat;lon;timestamp;P1;durP1;ratioP1;P2;durP2;ratioP2
3991;SDS011;2010;48.194;16.394;2023-03-26T00:00:56;2.70;;;0.63;;
3991;SDS011;2010;48.194;16.394;2023-03-26T00:03:31;0.50;;;0.50;;
3991;SDS011;2010;48.194;16.394;2023-03-26T00:06:01;1.83;;;0.70;;
3991;SDS011;2010;48.194;16.394;2023-03-26T00:08:36;1.47;;;0.73;;
3991;SDS011;2010;48.194;16.394;2023-03-26T00:11:07;0.57;;;0.57;;
3991;SDS011;2010;48.194;16.394;2023-03-26T00:13:39;1.23;;;0.93;;
3991;SDS011;2010;48.194;16.394;2023-03-26T00:16:09;0.70;;;0.70;;
3991;SDS011;2010;48.194;16.394;2023-03-26T00:18:40;0.80;;;0.67;;
3991;SDS011;2010;48.194;16.394;2023-03-26T00:21:12;2.73;;;0.60;;
3991;SDS011;2010;48.194;16.394;2023-03-26T00:23:54;0.80;;;0.57;;
3991;SDS011;2010;48.194;16.394;2023-03-26T00:26:30;0.50;;;0.50;;
3991;SDS011;2010;48.194;16.394;2023-03-26T00:29:02;1.13;;;0.70;;
3991;SDS011;2010;48.194;16.394;2023-03-26T00:31:34;0.90;;;0.53;;
3991;SDS011;2010;48.194;16.394;2023-03-26T00:34:12;0.87;;;0.67;;
3991;SDS011;2010;48.194;16.394;2023-03-26T00:36:53;0.80;;;0.80;;
3991;SDS011;2010;48.194;16.394;2023-03-26T00:39:22;0.60;;;0.60;;
3991;SDS011;2010;48.194;16.394;2023-03-26T00:41:54;1.73;;;0.70;;
3991;SDS011;2010;48.194;16.394;2023-03-26T00:44:26;6.87;;;0.67;;
3991;SDS011;2010;48.194;16.394;2023-03-26T00:46:56;0.70;;;0.50;;
3991;SDS011;2010;48.194;16.394;2023-03-26T00:49:27;1.07;;;0.70;;
3991;SDS011;2010;48.194;16.394;2023-03-26T00:51:59;1.10;;;0.60;;
3991;SDS011;2010;48.194;16.394;2023-03-26T00:54:28;2.00;;;0.73;;
3991;SDS011;2010;48.194;16.394;2023-03-26T00:57:01;2.10;;;1.10;;
3991;SDS011;2010;48.194;16.394;2023-03-26T00:59:33;1.23;;;0.60;;
3991;SDS011;2010;48.194;16.394;2023-03-26T01:02:02;1.03;;;0.80;;
3991;SDS011;2010;48.194;16.394;2023-03-26T01:04:33;1.40;;;0.60;;
3991;SDS011;2010;48.194;16.394;2023-03-26T01:07:12;0.60;;;0.60;;
3991;SDS011;2010;48.194;16.394;2023-03-26T01:09:49;4.83;;;1.00;;
3991;SDS011;2010;48.194;16.394;2023-03-26T01:12:35;0.63;;;0.63;;
3991;SDS011;2010;48.194;16.394;2023-03-26T01:15:07;3.13;;;0.87;;
3991;SDS011;2010;48.194;16.394;2023-03-26T01:17:37;1.47;;;0.70;;
3991;SDS011;2010;48.194;16.394;2023-03-26T01:20:11;1.83;;;0.77;;
3991;SDS011;2010;48.194;16.394;2023-03-26T01:22:48;1.47;;;0.60;;
3991;SDS011;2010;48.194;16.394;2023-03-26T01:25:23;5.90;;;0.80;;
3991;SDS011;2010;48.194;16.394;2023-03-26T01:27:59;7.47;;;0.90;;
3991;SDS011;2010;48.194;16.394;2023-03-26T01:30:32;1.90;;;0.70;;
3991;SDS011;2010;48.194;16.394;2023-03-26T01:33:15;1.60;;;0.70;;
3991;SDS011;2010;48.194;16.394;2023-03-26T01:35:51;0.80;;;0.80;;
3991;SDS011;2010;48.194;16.394;2023-03-26T01:38:35;2.50;;;0.90;;
3991;SDS011;2010;48.194;16.394;2023-03-26T01:41:18;1.97;;;1.03;;
3991;SDS011;2010;48.194;16.394;2023-03-26T01:43:56;1.83;;;0.90;;
3991;SDS011;2010;48.194;16.394;2023-03-26T01:46:30;3.17;;;1.10;;
3991;SDS011;2010;48.194;16.394;2023-03-26T01:49:04;0.80;;;0.80;;
3991;SDS011;2010;48.194;16.394;2023-03-26T01:51:40;2.55;;;0.70;;
3991;SDS011;2010;48.194;16.394;2023-03-26T01:54:15;0.80;;;0.70;;
3991;SDS011;2010;48.194;16.394;2023-03-26T01:56:50;0.60;;;0.60;;
3991;SDS011;2010;48.194;16.394;2023-03-26T01:59:36;1.73;;;0.80;;
3991;SDS011;2010;48.194;16.394;2023-03-26T02:02:42;1.10;;;1.00;;
3991;SDS011;2010;48.194;16.394;2023-03-26T02:05:18;2.00;;;0.80;;
3991;SDS011;2010;48.194;16.394;2023-03-26T02:07:56;0.80;;;0.60;;
3991;SDS011;2010;48.194;16.394;2023-03-26T02:10:30;2.97;;;0.93;;
3991;SDS011;2010;48.194;16.394;2023-03-26T02:13:08;3.45;;;0.88;;
3991;SDS011;2010;48.194;16.394;2023-03-26T02:15:43;1.10;;;0.60;;
3991;SDS011;2010;48.194;16.394;2023-03-26T02:18:23;2.60;;;0.77;;
3991;SDS011;2010;48.194;16.394;2023-03-26T02:21:04;0.95;;;0.65;;
3991;SDS011;2010;48.194;16.394;2023-03-26T02:23:38;1.43;;;1.00;;
3991;SDS011;2010;48.194;16.394;2023-03-26T02:26:17;1.23;;;0.90;;
3991;SDS011;2010;48.194;16.394;2023-03-26T02:29:12;1.67;;;1.00;;
3991;SDS011;2010;48.194;16.394;2023-03-26T02:31:53;1.40;;;1.00;;
3991;SDS011;2010;48.194;16.394;2023-03-26T02:34:31;1.70;;;0.97;;
3991;SDS011;2010;48.194;16.394;2023-03-26T02:37:01;13.95;;;1.10;;
3991;SDS011;2010;48.194;16.394;2023-03-26T02:39:31;2.10;;;0.90;;
3991;SDS011;2010;48.194;16.394;2023-03-26T02:42:13;3.43;;;1.00;;
3991;SDS011;2010;48.194;16.394;2023-03-26T02:44:51;1.40;;;0.80;;
3991;SDS011;2010;48.194;16.394;2023-03-26T02:47:49;2.23;;;0.90;;
3991;SDS011;2010;48.194;16.394;2023-03-26T02:50:53;2.20;;;0.70;;
3991;SDS011;2010;48.194;16.394;2023-03-26T02:53:43;1.67;;;0.90;;
3991;SDS011;2010;48.194;16.394;2023-03-26T02:56:40;1.10;;;1.00;;
3991;SDS011;2010;48.194;16.394;2023-03-26T02:59:42;4.85;;;1.08;;
3991;SDS011;2010;48.194;16.394;2023-03-26T03:02:36;3.55;;;1.20;;
3991;SDS011;2010;48.194;16.394;2023-03-26T03:05:26;0.93;;;0.80;;
3991;SDS011;2010;48.194;16.394;2023-03-26T03:08:24;1.63;;;0.90;;
3991;SDS011;2010;48.194;16.394;2023-03-26T03:11:16;2.97;;;0.87;;
3991;SDS011;2010;48.194;16.394;2023-03-26T03:13:52;3.35;;;0.85;;
3991;SDS011;2010;48.194;16.394;2023-03-26T03:16:24;2.20;;;0.80;;
3991;SDS011;2010;48.194;16.394;2023-03-26T03:19:11;1.10;;;0.90;;
3991;SDS011;2010;48.194;16.394;2023-03-26T03:21:41;1.53;;;0.73;;
3991;SDS011;2010;48.194;16.394;2023-03-26T03:24:14;0.67;;;0.67;;
3991;SDS011;2010;48.194;16.394;2023-03-26T03:26:46;10.50;;;1.30;;
3991;SDS011;2010;48.194;16.394;2023-03-26T03:29:42;2.10;;;1.07;;
3991;SDS011;2010;48.194;16.394;2023-03-26T03:32:30;3.70;;;0.97;;
3991;SDS011;2010;48.194;16.394;2023-03-26T03:35:08;1.50;;;1.10;;
3991;SDS011;2010;48.194;16.394;2023-03-26T03:37:39;2.33;;;0.80;;
3991;SDS011;2010;48.194;16.394;2023-03-26T03:40:08;2.33;;;1.20;;
3991;SDS011;2010;48.194;16.394;2023-03-26T03:42:40;1.00;;;0.80;;
3991;SDS011;2010;48.194;16.394;2023-03-26T03:45:19;1.20;;;0.90;;
3991;SDS011;2010;48.194;16.394;2023-03-26T03:48:14;3.58;;;0.85;;
3991;SDS011;2010;48.194;16.394;2023-03-26T03:50:51;0.88;;;0.88;;
3991;SDS011;2010;48.194;16.394;2023-03-26T03:53:39;1.93;;;0.77;;
3991;SDS011;2010;48.194;16.394;2023-03-26T03:56:09;1.43;;;1.00;;
3991;SDS011;2010;48.194;16.394;2023-03-26T03:59:13;1.13;;;0.93;;
3991;SDS011;2010;48.194;16.394;2023-03-26T04:01:56;6.60;;;1.50;;
3991;SDS011;2010;48.194;16.394;2023-03-26T04:04:34;1.20;;;1.10;;
3991;SDS011;2010;48.194;16.394;2023-03-26T04:07:07;1.43;;;0.97;;
3991;SDS011;2010;48.194;16.394;2023-03-26T04:09:57;3.50;;;1.03;;
3991;SDS011;2010;48.194;16.394;2023-03-26T04:12:55;0.80;;;0.80;;
3991;SDS011;2010;48.194;16.394;2023-03-26T04:15:53;2.00;;;0.80;;
3991;SDS011;2010;48.194;16.394;2023-03-26T04:18:24;4.00;;;0.80;;
3991;SDS011;2010;48.194;16.394;2023-03-26T04:20:56;1.23;;;0.90;;
3991;SDS011;2010;48.194;16.394;2023-03-26T04:23:33;2.30;;;0.90;;
3991;SDS011;2010;48.194;16.394;2023-03-26T04:26:16;2.90;;;1.17;;
3991;SDS011;2010;48.194;16.394;2023-03-26T04:29:06;2.43;;;1.40;;
3991;SDS011;2010;48.194;16.394;2023-03-26T04:31:46;3.20;;;0.90;;
3991;SDS011;2010;48.194;16.394;2023-03-26T04:34:26;4.00;;;0.90;;
3991;SDS011;2010;48.194;16.394;2023-03-26T04:37:07;2.10;;;0.90;;
3991;SDS011;2010;48.194;16.394;2023-03-26T04:39:47;1.50;;;1.00;;
3991;SDS011;2010;48.194;16.394;2023-03-26T04:42:35;1.60;;;0.90;;
3991;SDS011;2010;48.194;16.394;2023-03-26T04:45:19;1.33;;;1.00;;
3991;SDS011;2010;48.194;16.394;2023-03-26T04:47:56;1.10;;;1.00;;
3991;SDS011;2010;48.194;16.394;2023-03-26T04:50:28;1.70;;;1.10;;
3991;SDS011;2010;48.194;16.394;2023-03-26T04:53:14;2.20;;;0.90;;
3991;SDS011;2010;48.194;16.394;2023-03-26T04:56:12;1.70;;;1.20;;
3991;SDS011;2010;48.194;16.394;2023-03-26T04:59:19;1.20;;;1.10;;
3991;SDS011;2010;48.194;16.394;2023-03-26T05:01:55;2.93;;;0.90;;
3991;SDS011;2010;48.194;16.394;2023-03-26T05:04:30;1.27;;;0.80;;
3991;SDS011;2010;48.194;16.394;2023-03-26T05:07:04;1.27;;;1.00;;
3991;SDS011;2010;48.194;16.394;2023-03-26T05:09:47;1.20;;;1.03;;
3991;SDS011;2010;48.194;16.394;2023-03-26T05:12:43;2.40;;;1.20;;
3991;SDS011;2010;48.194;16.394;2023-03-26T05:15:24;5.90;;;1.23;;
3991;SDS011;2010;48.194;16.394;2023-03-26T05:18:13;5.70;;;1.00;;
3991;SDS011;2010;48.194;16.394;2023-03-26T05:20:55;0.93;;;0.80;;
3991;SDS011;2010;48.194;16.394;2023-03-26T05:23:27;2.27;;;1.07;;
3991;SDS011;2010;48.194;16.394;2023-03-26T05:26:18;2.00;;;1.00;;
3991;SDS011;2010;48.194;16.394;2023-03-26T05:28:51;3.77;;;0.90;;
3991;SDS011;2010;48.194;16.394;2023-03-26T05:31:28;1.87;;;1.00;;
3991;SDS011;2010;48.194;16.394;2023-03-26T05:33:58;1.90;;;0.90;;
3991;SDS011;2010;48.194;16.394;2023-03-26T05:36:30;2.47;;;0.77;;
3991;SDS011;2010;48.194;16.394;2023-03-26T05:39:20;1.83;;;1.33;;
3991;SDS011;2010;48.194;16.394;2023-03-26T05:42:20;1.00;;;0.90;;
3991;SDS011;2010;48.194;16.394;2023-03-26T05:45:31;1.33;;;0.73;;
3991;SDS011;2010;48.194;16.394;2023-03-26T05:48:11;1.03;;;0.93;;
3991;SDS011;2010;48.194;16.394;2023-03-26T05:50:40;4.10;;;0.87;;
3991;SDS011;2010;48.194;16.394;2023-03-26T05:53:09;1.73;;;0.90;;
3991;SDS011;2010;48.194;16.394;2023-03-26T05:56:18;5.03;;;1.10;;
3991;SDS011;2010;48.194;16.394;2023-03-26T05:59:14;0.70;;;0.70;;
3991;SDS011;2010;48.194;16.394;2023-03-26T06:02:05;1.45;;;0.90;;
3991;SDS011;2010;48.194;16.394;2023-03-26T06:04:52;1.57;;;0.80;;
3991;SDS011;2010;48.194;16.394;2023-03-26T06:07:55;3.23;;;1.10;;
3991;SDS011;2010;48.194;16.394;2023-03-26T06:10:31;3.50;;;1.13;;
3991;SDS011;2010;48.194;16.394;2023-03-26T06:12:59;3.00;;;1.60;;
3991;SDS011;2010;48.194;16.394;2023-03-26T06:15:30;4.60;;;1.33;;
3991;SDS011;2010;48.194;16.394;2023-03-26T06:18:06;1.63;;;0.90;;
3991;SDS011;2010;48.194;16.394;2023-03-26T06:20:59;2.70;;;1.23;;
3991;SDS011;2010;48.194;16.394;2023-03-26T06:23:40;2.15;;;1.58;;
3991;SDS011;2010;48.194;16.394;2023-03-26T06:26:37;0.87;;;0.80;;
3991;SDS011;2010;48.194;16.394;2023-03-26T06:29:33;1.63;;;1.07;;
3991;SDS011;2010;48.194;16.394;2023-03-26T06:32:12;3.60;;;1.50;;
3991;SDS011;2010;48.194;16.394;2023-03-26T06:35:11;1.80;;;1.47;;
3991;SDS011;2010;48.194;16.394;2023-03-26T06:37:44;2.63;;;1.20;;
3991;SDS011;2010;48.194;16.394;2023-03-26T06:40:13;5.23;;;0.97;;
3991;SDS011;2010;48.194;16.394;2023-03-26T06:43:04;3.53;;;1.50;;
3991;SDS011;2010;48.194;16.394;2023-03-26T06:45:56;3.53;;;1.40;;
3991;SDS011;2010;48.194;16.394;2023-03-26T06:48:59;3.03;;;1.40;;
3991;SDS011;2010;48.194;16.394;2023-03-26T06:51:53;3.85;;;1.38;;
3991;SDS011;2010;48.194;16.394;2023-03-26T06:54:46;1.63;;;1.00;;
3991;SDS011;2010;48.194;16.394;2023-03-26T06:57:53;7.50;;;1.30;;
3991;SDS011;2010;48.194;16.394;2023-03-26T07:00:56;2.50;;;1.27;;
3991;SDS011;2010;48.194;16.394;2023-03-26T07:03:45;2.88;;;1.20;;
3991;SDS011;2010;48.194;16.394;2023-03-26T07:06:46;1.60;;;0.97;;
3991;SDS011;2010;48.194;16.394;2023-03-26T07:09:37;2.80;;;1.50;;
3991;SDS011;2010;48.194;16.394;2023-03-26T07:12:39;2.60;;;1.20;;
3991;SDS011;2010;48.194;16.394;2023-03-26T07:15:31;7.93;;;1.42;;
3991;SDS011;2010;48.194;16.394;2023-03-26T07:18:22;7.93;;;1.30;;
3991;SDS011;2010;48.194;16.394;2023-03-26T07:20:57;5.40;;;1.53;;
3991;SDS011;2010;48.194;16.394;2023-03-26T07:23:32;2.83;;;1.30;;
3991;SDS011;2010;48.194;16.394;2023-03-26T07:26:59;1.17;;;1.07;;
3991;SDS011;2010;48.194;16.394;2023-03-26T07:29:56;1.80;;;1.03;;
3991;SDS011;2010;48.194;16.394;2023-03-26T07:32:53;3.33;;;1.33;;
3991;SDS011;2010;48.194;16.394;2023-03-26T07:35:47;1.33;;;1.10;;
3991;SDS011;2010;48.194;16.394;2023-03-26T07:38:43;1.63;;;1.20;;
3991;SDS011;2010;48.194;16.394;2023-03-26T07:41:52;4.40;;;1.20;;
3991;SDS011;2010;48.194;16.394;2023-03-26T07:44:48;4.33;;;1.60;;
3991;SDS011;2010;48.194;16.394;2023-03-26T07:47:43;2.13;;;1.00;;
3991;SDS011;2010;48.194;16.394;2023-03-26T07:50:19;2.70;;;1.50;;
3991;SDS011;2010;48.194;16.394;2023-03-26T07:53:13;3.37;;;1.40;;
3991;SDS011;2010;48.194;16.394;2023-03-26T07:56:19;2.20;;;1.10;;
3991;SDS011;2010;48.194;16.394;2023-03-26T07:59:19;3.67;;;1.20;;
3991;SDS011;2010;48.194;16.394;2023-03-26T08:02:41;2.83;;;1.10;;
3991;SDS011;2010;48.194;16.394;2023-03-26T08:06:06;4.10;;;1.23;;
3991;SDS011;2010;48.194;16.394;2023-03-26T08:09:14;3.23;;;1.27;;
3991;SDS011;2010;48.194;16.394;2023-03-26T08:12:17;4.53;;;1.40;;
3991;SDS011;2010;48.194;16.394;2023-03-26T08:14:56;4.07;;;1.40;;
3991;SDS011;2010;48.194;16.394;2023-03-26T08:17:33;2.70;;;0.90;;
3991;SDS011;2010;48.194;16.394;2023-03-26T08:20:11;5.17;;;1.37;;
3991;SDS011;2010;48.194;16.394;2023-03-26T08:22:58;3.93;;;1.20;;
3991;SDS011;2010;48.194;16.394;2023-03-26T08:25:45;1.43;;;1.33;;
3991;SDS011;2010;48.194;16.394;2023-03-26T08:28:36;3.50;;;1.27;;
3991;SDS011;2010;48.194;16.394;2023-03-26T08:31:23;2.58;;;1.20;;
3991;SDS011;2010;48.194;16.394;2023-03-26T08:34:04;1.80;;;1.07;;
3991;SDS011;2010;48.194;16.394;2023-03-26T08:36:36;5.10;;;1.20;;
3991;SDS011;2010;48.194;16.394;2023-03-26T08:39:08;3.28;;;1.23;;
3991;SDS011;2010;48.194;16.394;2023-03-26T08:54:44;5.80;;;1.63;;
3991;SDS011;2010;48.194;16.394;2023-03-26T08:57:25;5.03;;;1.37;;
3991;SDS011;2010;48.194;16.394;2023-03-26T09:00:53;5.93;;;1.85;;
3991;SDS011;2010;48.194;16.394;2023-03-26T09:13:28;4.20;;;1.20;;
3991;SDS011;2010;48.194;16.394;2023-03-26T09:19:38;2.90;;;1.53;;
3991;SDS011;2010;48.194;16.394;2023-03-26T09:22:32;8.33;;;1.30;;
3991;SDS011;2010;48.194;16.394;2023-03-26T09:25:25;2.53;;;1.38;;
3991;SDS011;2010;48.194;16.394;2023-03-26T09:28:21;3.08;;;1.20;;
3991;SDS011;2010;48.194;16.394;2023-03-26T09:34:15;1.90;;;0.90;;
3991;SDS011;2010;48.194;16.394;2023-03-26T09:39:48;1.92;;;1.20;;
3991;SDS011;2010;48.194;16.394;2023-03-26T09:42:36;6.33;;;1.73;;
3991;SDS011;2010;48.194;16.394;2023-03-26T09:51:33;3.10;;;1.80;;
3991;SDS011;2010;48.194;16.394;2023-03-26T09:57:30;3.53;;;1.53;;
3991;SDS011;2010;48.194;16.394;2023-03-26T10:00:19;4.63;;;1.47;;
3991;SDS011;2010;48.194;16.394;2023-03-26T10:02:57;4.20;;;0.90;;
3991;SDS011;2010;48.194;16.394;2023-03-26T10:05:47;2.20;;;1.60;;
3991;SDS011;2010;48.194;16.394;2023-03-26T10:08:34;3.05;;;0.95;;
3991;SDS011;2010;48.194;16.394;2023-03-26T10:11:13;2.57;;;0.90;;
3991;SDS011;2010;48.194;16.394;2023-03-26T10:14:07;2.73;;;1.03;;
3991;SDS011;2010;48.194;16.394;2023-03-26T10:16:50;5.87;;;1.40;;
3991;SDS011;2010;48.194;16.394;2023-03-26T10:19:33;1.95;;;0.70;;
3991;SDS011;2010;48.194;16.394;2023-03-26T10:22:18;2.70;;;1.10;;
3991;SDS011;2010;48.194;16.394;2023-03-26T10:25:09;1.27;;;0.93;;
3991;SDS011;2010;48.194;16.394;2023-03-26T10:31:36;3.10;;;0.67;;
3991;SDS011;2010;48.194;16.394;2023-03-26T10:34:15;2.03;;;1.30;;
3991;SDS011;2010;48.194;16.394;2023-03-26T10:37:03;2.60;;;1.10;;
3991;SDS011;2010;48.194;16.394;2023-03-26T10:42:41;1.93;;;0.83;;
3991;SDS011;2010;48.194;16.394;2023-03-26T10:45:50;2.87;;;1.10;;
3991;SDS011;2010;48.194;16.394;2023-03-26T10:52:02;2.97;;;1.00;;
3991;SDS011;2010;48.194;16.394;2023-03-26T10:57:34;1.77;;;0.80;;
3991;SDS011;2010;48.194;16.394;2023-03-26T11:03:13;4.10;;;1.30;;
3991;SDS011;2010;48.194;16.394;2023-03-26T11:06:02;1.33;;;1.00;;
3991;SDS011;2010;48.194;16.394;2023-03-26T11:08:37;2.53;;;1.20;;
3991;SDS011;2010;48.194;16.394;2023-03-26T11:11:16;3.83;;;1.20;;
3991;SDS011;2010;48.194;16.394;2023-03-26T11:13:54;2.40;;;1.00;;
3991;SDS011;2010;48.194;16.394;2023-03-26T11:16:34;1.43;;;0.90;;
3991;SDS011;2010;48.194;16.394;2023-03-26T11:19:14;3.47;;;1.57;;
3991;SDS011;2010;48.194;16.394;2023-03-26T11:21:56;2.70;;;1.00;;
3991;SDS011;2010;48.194;16.394;2023-03-26T11:24:37;1.50;;;1.13;;
3991;SDS011;2010;48.194;16.394;2023-03-26T11:27:45;2.80;;;1.10;;
3991;SDS011;2010;48.194;16.394;2023-03-26T11:30:27;1.63;;;1.00;;
3991;SDS011;2010;48.194;16.394;2023-03-26T11:33:09;2.97;;;1.20;;
3991;SDS011;2010;48.194;16.394;2023-03-26T11:35:44;2.60;;;1.30;;
3991;SDS011;2010;48.194;16.394;2023-03-26T11:38:24;4.03;;;1.20;;
3991;SDS011;2010;48.194;16.394;2023-03-26T11:40:57;1.43;;;1.30;;
3991;SDS011;2010;48.194;16.394;2023-03-26T11:43:48;2.17;;;1.27;;
3991;SDS011;2010;48.194;16.394;2023-03-26T11:46:21;2.00;;;1.33;;
3991;SDS011;2010;48.194;16.394;2023-03-26T11:48:54;2.10;;;0.93;;
3991;SDS011;2010;48.194;16.394;2023-03-26T11:51:31;1.63;;;1.30;;
3991;SDS011;2010;48.194;16.394;2023-03-26T11:54:03;1.60;;;1.00;;
3991;SDS011;2010;48.194;16.394;2023-03-26T11:56:32;1.17;;;0.87;;
3991;SDS011;2010;48.194;16.394;2023-03-26T11:59:05;3.78;;;0.90;;
3991;SDS011;2010;48.194;16.394;2023-03-26T12:01:41;1.10;;;0.70;;
3991;SDS011;2010;48.194;16.394;2023-03-26T12:04:16;0.93;;;0.80;;
3991;SDS011;2010;48.194;16.394;2023-03-26T12:07:03;0.80;;;0.80;;
3991;SDS011;2010;48.194;16.394;2023-03-26T12:09:48;1.00;;;0.80;;
3991;SDS011;2010;48.194;16.394;2023-03-26T12:12:17;1.30;;;1.00;;
3991;SDS011;2010;48.194;16.394;2023-03-26T12:14:51;1.63;;;1.03;;
3991;SDS011;2010;48.194;16.394;2023-03-26T12:17:24;2.72;;;1.30;;
3991;SDS011;2010;48.194;16.394;2023-03-26T12:23:32;1.77;;;1.00;;
3991;SDS011;2010;48.194;16.394;2023-03-26T12:26:10;1.43;;;0.97;;
3991;SDS011;2010;48.194;16.394;2023-03-26T12:28:54;0.90;;;0.70;;
3991;SDS011;2010;48.194;16.394;2023-03-26T12:31:24;1.65;;;0.70;;
3991;SDS011;2010;48.194;16.394;2023-03-26T12:34:05;2.45;;;0.80;;
3991;SDS011;2010;48.194;16.394;2023-03-26T12:36:46;1.10;;;0.90;;
3991;SDS011;2010;48.194;16.394;2023-03-26T12:42:25;2.27;;;0.60;;
3991;SDS011;2010;48.194;16.394;2023-03-26T12:45:27;0.77;;;0.67;;
3991;SDS011;2010;48.194;16.394;2023-03-26T12:47:58;1.07;;;0.60;;
3991;SDS011;2010;48.194;16.394;2023-03-26T12:50:42;1.13;;;0.80;;
3991;SDS011;2010;48.194;16.394;2023-03-26T12:56:12;0.50;;;0.50;;
3991;SDS011;2010;48.194;16.394;2023-03-26T12:59:18;1.00;;;0.70;;
3991;SDS011;2010;48.194;16.394;2023-03-26T13:02:18;1.53;;;0.80;;
3991;SDS011;2010;48.194;16.394;2023-03-26T13:05:33;0.50;;;0.50;;
3991;SDS011;2010;48.194;16.394;2023-03-26T13:08:19;0.60;;;0.60;;
3991;SDS011;2010;48.194;16.394;2023-03-26T13:10:55;0.90;;;0.50;;
3991;SDS011;2010;48.194;16.394;2023-03-26T13:13:34;1.80;;;0.60;;
3991;SDS011;2010;48.194;16.394;2023-03-26T13:16:26;0.60;;;0.60;;
3991;SDS011;2010;48.194;16.394;2023-03-26T13:19:01;1.17;;;0.60;;
3991;SDS011;2010;48.194;16.394;2023-03-26T13:21:38;1.83;;;0.57;;
3991;SDS011;2010;48.194;16.394;2023-03-26T13:24:23;0.80;;;0.50;;
3991;SDS011;2010;48.194;16.394;2023-03-26T13:27:04;0.60;;;0.60;;
3991;SDS011;2010;48.194;16.394;2023-03-26T13:29:47;1.90;;;0.90;;
3991;SDS011;2010;48.194;16.394;2023-03-26T13:32:30;3.73;;;0.80;;
3991;SDS011;2010;48.194;16.394;2023-03-26T13:35:17;0.70;;;0.67;;
3991;SDS011;2010;48.194;16.394;2023-03-26T13:37:54;1.13;;;0.70;;
3991;SDS011;2010;48.194;16.394;2023-03-26T13:40:36;0.53;;;0.53;;
3991;SDS011;2010;48.194;16.394;2023-03-26T13:43:22;0.67;;;0.67;;
3991;SDS011;2010;48.194;16.394;2023-03-26T13:46:05;0.70;;;0.70;;
3991;SDS011;2010;48.194;16.394;2023-03-26T13:48:45;0.60;;;0.60;;
3991;SDS011;2010;48.194;16.394;2023-03-26T13:51:28;2.40;;;0.70;;
3991;SDS011;2010;48.194;16.394;2023-03-26T13:54:12;1.10;;;1.00;;
3991;SDS011;2010;48.194;16.394;2023-03-26T13:56:48;0.63;;;0.63;;
3991;SDS011;2010;48.194;16.394;2023-03-26T13:59:25;0.87;;;0.80;;
3991;SDS011;2010;48.194;16.394;2023-03-26T14:01:58;2.73;;;0.90;;
3991;SDS011;2010;48.194;16.394;2023-03-26T14:04:39;0.90;;;0.73;;
3991;SDS011;2010;48.194;16.394;2023-03-26T14:07:15;0.80;;;0.80;;
3991;SDS011;2010;48.194;16.394;2023-03-26T14:09:50;0.80;;;0.80;;
3991;SDS011;2010;48.194;16.394;2023-03-26T14:12:26;0.70;;;0.70;;
3991;SDS011;2010;48.194;16.394;2023-03-26T14:15:02;2.43;;;0.90;;
3991;SDS011;2010;48.194;16.394;2023-03-26T14:17:36;0.60;;;0.60;;
3991;SDS011;2010;48.194;16.394;2023-03-26T14:23:31;0.70;;;0.63;;
3991;SDS011;2010;48.194;16.394;2023-03-26T14:26:52;0.80;;;0.80;;
3991;SDS011;2010;48.194;16.394;2023-03-26T14:29:45;6.70;;;1.00;;
3991;SDS011;2010;48.194;16.394;2023-03-26T14:32:31;8.70;;;1.00;;
3991;SDS011;2010;48.194;16.394;2023-03-26T14:35:14;0.80;;;0.73;;
3991;SDS011;2010;48.194;16.394;2023-03-26T14:44:09;1.33;;;1.23;;
3991;SDS011;2010;48.194;16.394;2023-03-26T14:47:16;1.27;;;1.17;;
3991;SDS011;2010;48.194;16.394;2023-03-26T14:52:55;2.70;;;1.30;;
3991;SDS011;2010;48.194;16.394;2023-03-26T14:55:45;1.37;;;1.27;;
3991;SDS011;2010;48.194;16.394;2023-03-26T14:58:49;4.43;;;1.67;;
3991;SDS011;2010;48.194;16.394;2023-03-26T15:04:58;1.67;;;1.57;;
3991;SDS011;2010;48.194;16.394;2023-03-26T15:08:11;2.30;;;1.00;;
3991;SDS011;2010;48.194;16.394;2023-03-26T15:11:16;1.50;;;1.40;;
3991;SDS011;2010;48.194;16.394;2023-03-26T15:14:09;1.10;;;1.10;;
3991;SDS011;2010;48.194;16.394;2023-03-26T15:17:16;1.33;;;1.23;;
3991;SDS011;2010;48.194;16.394;2023-03-26T15:23:37;1.17;;;1.10;;
3991;SDS011;2010;48.194;16.394;2023-03-26T15:33:39;7.83;;;2.33;;
3991;SDS011;2010;48.194;16.394;2023-03-26T15:42:40;1.90;;;1.80;;
3991;SDS011;2010;48.194;16.394;2023-03-26T15:45:28;1.40;;;1.30;;
3991;SDS011;2010;48.194;16.394;2023-03-26T15:48:05;2.83;;;1.70;;
3991;SDS011;2010;48.194;16.394;2023-03-26T15:50:55;3.00;;;1.53;;
3991;SDS011;2010;48.194;16.394;2023-03-26T15:53:38;2.07;;;1.80;;
3991;SDS011;2010;48.194;16.394;2023-03-26T15:59:34;1.53;;;1.13;;
3991;SDS011;2010;48.194;16.394;2023-03-26T16:02:39;0.73;;;0.73;;
3991;SDS011;2010;48.194;16.394;2023-03-26T16:08:24;4.07;;;1.10;;
3991;SDS011;2010;48.194;16.394;2023-03-26T16:11:05;2.60;;;1.17;;
3991;SDS011;2010;48.194;16.394;2023-03-26T16:13:40;4.40;;;0.90;;
3991;SDS011;2010;48.194;16.394;2023-03-26T16:16:22;1.07;;;0.90;;
3991;SDS011;2010;48.194;16.394;2023-03-26T16:18:56;3.63;;;1.10;;
3991;SDS011;2010;48.194;16.394;2023-03-26T16:24:35;4.20;;;1.80;;
3991;SDS011;2010;48.194;16.394;2023-03-26T16:33:10;4.27;;;1.70;;
3991;SDS011;2010;48.194;16.394;2023-03-26T16:36:00;2.80;;;1.67;;
3991;SDS011;2010;48.194;16.394;2023-03-26T16:38:48;2.10;;;1.47;;
3991;SDS011;2010;48.194;16.394;2023-03-26T16:42:07;3.30;;;1.73;;
3991;SDS011;2010;48.194;16.394;2023-03-26T16:45:07;3.50;;;1.67;;
3991;SDS011;2010;48.194;16.394;2023-03-26T16:47:55;2.73;;;1.37;;
3991;SDS011;2010;48.194;16.394;2023-03-26T16:50:38;2.37;;;1.40;;
3991;SDS011;2010;48.194;16.394;2023-03-26T16:53:22;6.43;;;2.50;;
3991;SDS011;2010;48.194;16.394;2023-03-26T16:56:06;2.30;;;1.90;;
3991;SDS011;2010;48.194;16.394;2023-03-26T17:02:06;1.60;;;1.13;;
3991;SDS011;2010;48.194;16.394;2023-03-26T17:04:54;2.67;;;0.90;;
3991;SDS011;2010;48.194;16.394;2023-03-26T17:07:37;1.90;;;0.70;;
3991;SDS011;2010;48.194;16.394;2023-03-26T17:10:13;1.47;;;0.90;;
3991;SDS011;2010;48.194;16.394;2023-03-26T17:12:52;2.50;;;1.80;;
3991;SDS011;2010;48.194;16.394;2023-03-26T17:15:47;1.17;;;1.00;;
3991;SDS011;2010;48.194;16.394;2023-03-26T17:18:40;2.27;;;1.00;;
3991;SDS011;2010;48.194;16.394;2023-03-26T17:21:23;2.40;;;1.03;;
3991;SDS011;2010;48.194;16.394;2023-03-26T17:24:14;1.17;;;0.70;;
3991;SDS011;2010;48.194;16.394;2023-03-26T17:27:22;0.97;;;0.60;;
3991;SDS011;2010;48.194;16.394;2023-03-26T17:30:04;3.33;;;0.87;;
3991;SDS011;2010;48.194;16.394;2023-03-26T17:33:10;1.47;;;1.13;;
3991;SDS011;2010;48.194;16.394;2023-03-26T17:35:43;1.97;;;0.73;;
3991;SDS011;2010;48.194;16.394;2023-03-26T17:41:54;1.73;;;1.50;;
3991;SDS011;2010;48.194;16.394;2023-03-26T17:44:48;2.50;;;2.30;;
3991;SDS011;2010;48.194;16.394;2023-03-26T17:47:32;2.80;;;1.37;;
3991;SDS011;2010;48.194;16.394;2023-03-26T17:50:18;2.00;;;1.87;;
3991;SDS011;2010;48.194;16.394;2023-03-26T17:52:55;1.50;;;1.40;;
3991;SDS011;2010;48.194;16.394;2023-03-26T17:55:36;2.63;;;1.33;;
3991;SDS011;2010;48.194;16.394;2023-03-26T17:58:26;2.17;;;1.80;;
3991;SDS011;2010;48.194;16.394;2023-03-26T18:01:30;1.90;;;1.80;;
3991;SDS011;2010;48.194;16.394;2023-03-26T18:04:28;1.47;;;1.30;;
3991;SDS011;2010;48.194;16.394;2023-03-26T18:10:25;6.30;;;2.73;;
3991;SDS011;2010;48.194;16.394;2023-03-26T18:13:45;3.40;;;2.90;;
3991;SDS011;2010;48.194;16.394;2023-03-26T18:16:57;3.70;;;1.80;;
3991;SDS011;2010;48.194;16.394;2023-03-26T18:19:44;2.10;;;2.00;;
3991;SDS011;2010;48.194;16.394;2023-03-26T18:22:29;2.23;;;2.13;;
3991;SDS011;2010;48.194;16.394;2023-03-26T18:25:05;4.47;;;2.37;;
3991;SDS011;2010;48.194;16.394;2023-03-26T18:27:49;2.63;;;2.40;;
3991;SDS011;2010;48.194;16.394;2023-03-26T18:30:28;2.50;;;1.90;;
3991;SDS011;2010;48.194;16.394;2023-03-26T18:33:00;2.07;;;1.73;;
3991;SDS011;2010;48.194;16.394;2023-03-26T18:35:42;1.87;;;1.77;;
3991;SDS011;2010;48.194;16.394;2023-03-26T18:38:17;1.67;;;1.43;;
3991;SDS011;2010;48.194;16.394;2023-03-26T18:41:05;4.30;;;2.73;;
3991;SDS011;2010;48.194;16.394;2023-03-26T18:43:43;3.53;;;2.23;;
3991;SDS011;2010;48.194;16.394;2023-03-26T18:46:18;2.60;;;2.20;;
3991;SDS011;2010;48.194;16.394;2023-03-26T18:48:56;2.63;;;2.20;;